sensor_id;sensor_type;location;lat;lon;timestamp;P1;durP1;ratioP1;P2;durP2;ratioP2
29370;SDS011;16357;52.188;7.838;2022-09-09T00:06:45;2.05;;;1.30;;
29370;SDS011;16357;52.188;7.838;2022-09-09T00:09:19;4.22;;;1.40;;
29370;SDS011;16357;52.188;7.838;2022-09-09T00:12:05;3.97;;;1.50;;
29370;SDS011;16357;52.188;7.838;2022-09-09T00:14:40;4.38;;;1.45;;
29370;SDS011;16357;52.188;7.838;2022-09-09T00:17:12;2.25;;;1.10;;
29370;SDS011;16357;52.188;7.838;2022-09-09T00:19:54;1.75;;;1.10;;
29370;SDS011;16357;52.188;7.838;2022-09-09T00:22:28;3.47;;;1.20;;
29370;SDS011;16357;52.188;7.838;2022-09-09T00:25:18;2.95;;;1.23;;
29370;SDS011;16357;52.188;7.838;2022-09-09T00:28:00;3.70;;;1.30;;
29370;SDS011;16357;52.188;7.838;2022-09-09T00:30:28;2.92;;;1.20;;
29370;SDS011;16357;52.188;7.838;2022-09-09T00:33:22;5.13;;;1.35;;
29370;SDS011;16357;52.188;7.838;2022-09-09T00:35:58;3.58;;;1.50;;
29370;SDS011;16357;52.188;7.838;2022-09-09T00:43:37;4.30;;;1.38;;
29370;SDS011;16357;52.188;7.838;2022-09-09T00:51:52;3.85;;;1.50;;
29370;SDS011;16357;52.188;7.838;2022-09-09T00:54:33;3.75;;;1.27;;
29370;SDS011;16357;52.188;7.838;2022-09-09T00:57:22;2.67;;;1.50;;
29370;SDS011;16357;52.188;7.838;2022-09-09T01:05:34;2.97;;;1.40;;
29370;SDS011;16357;52.188;7.838;2022-09-09T01:08:17;3.35;;;1.48;;
29370;SDS011;16357;52.188;7.838;2022-09-09T01:10:54;3.28;;;1.58;;
29370;SDS011;16357;52.188;7.838;2022-09-09T01:13:25;3.72;;;1.58;;
29370;SDS011;16357;52.188;7.838;2022-09-09T01:16:00;5.43;;;1.38;;
29370;SDS011;16357;52.188;7.838;2022-09-09T01:18:29;2.60;;;1.67;;
29370;SDS011;16357;52.188;7.838;2022-09-09T01:26:47;2.75;;;1.42;;
29370;SDS011;16357;52.188;7.838;2022-09-09T01:29:17;2.95;;;1.55;;
29370;SDS011;16357;52.188;7.838;2022-09-09T01:31:58;2.58;;;1.42;;
29370;SDS011;16357;52.188;7.838;2022-09-09T01:34:31;5.10;;;1.65;;
29370;SDS011;16357;52.188;7.838;2022-09-09T01:39:38;2.50;;;1.40;;
29370;SDS011;16357;52.188;7.838;2022-09-09T01:42:08;3.47;;;1.63;;
29370;SDS011;16357;52.188;7.838;2022-09-09T01:44:38;5.75;;;1.35;;
29370;SDS011;16357;52.188;7.838;2022-09-09T01:47:04;4.05;;;1.55;;
29370;SDS011;16357;52.188;7.838;2022-09-09T01:49:32;3.70;;;1.67;;
29370;SDS011;16357;52.188;7.838;2022-09-09T01:52:01;2.72;;;1.40;;
29370;SDS011;16357;52.188;7.838;2022-09-09T01:54:29;2.45;;;1.40;;
29370;SDS011;16357;52.188;7.838;2022-09-09T02:02:26;3.40;;;1.30;;
29370;SDS011;16357;52.188;7.838;2022-09-09T02:05:21;4.63;;;1.73;;
29370;SDS011;16357;52.188;7.838;2022-09-09T02:10:42;3.30;;;1.45;;
29370;SDS011;16357;52.188;7.838;2022-09-09T02:13:17;3.35;;;1.15;;
29370;SDS011;16357;52.188;7.838;2022-09-09T02:18:24;2.97;;;1.45;;
29370;SDS011;16357;52.188;7.838;2022-09-09T02:20:55;2.40;;;1.50;;
29370;SDS011;16357;52.188;7.838;2022-09-09T02:23:23;2.38;;;1.40;;
29370;SDS011;16357;52.188;7.838;2022-09-09T02:25:50;2.13;;;1.50;;
29370;SDS011;16357;52.188;7.838;2022-09-09T02:28:19;4.03;;;1.60;;
29370;SDS011;16357;52.188;7.838;2022-09-09T02:30:49;1.65;;;1.20;;
29370;SDS011;16357;52.188;7.838;2022-09-09T02:33:25;3.88;;;1.30;;
29370;SDS011;16357;52.188;7.838;2022-09-09T02:35:54;3.22;;;1.52;;
29370;SDS011;16357;52.188;7.838;2022-09-09T02:38:28;4.07;;;1.50;;
29370;SDS011;16357;52.188;7.838;2022-09-09T02:40:58;3.15;;;1.75;;
29370;SDS011;16357;52.188;7.838;2022-09-09T02:43:25;4.55;;;1.48;;
29370;SDS011;16357;52.188;7.838;2022-09-09T02:45:53;1.73;;;1.20;;
29370;SDS011;16357;52.188;7.838;2022-09-09T02:51:18;3.08;;;1.10;;
29370;SDS011;16357;52.188;7.838;2022-09-09T02:56:53;1.83;;;1.15;;
29370;SDS011;16357;52.188;7.838;2022-09-09T02:59:21;4.75;;;1.50;;
29370;SDS011;16357;52.188;7.838;2022-09-09T03:01:48;2.53;;;1.27;;
29370;SDS011;16357;52.188;7.838;2022-09-09T03:04:15;2.63;;;1.40;;
29370;SDS011;16357;52.188;7.838;2022-09-09T03:06:41;2.28;;;1.27;;
29370;SDS011;16357;52.188;7.838;2022-09-09T03:09:08;4.22;;;1.73;;
29370;SDS011;16357;52.188;7.838;2022-09-09T03:11:36;1.42;;;1.20;;
29370;SDS011;16357;52.188;7.838;2022-09-09T03:14:04;2.42;;;1.73;;
29370;SDS011;16357;52.188;7.838;2022-09-09T03:16:31;2.70;;;1.27;;
29370;SDS011;16357;52.188;7.838;2022-09-09T03:19:00;3.55;;;1.45;;
29370;SDS011;16357;52.188;7.838;2022-09-09T03:21:26;2.35;;;1.50;;
29370;SDS011;16357;52.188;7.838;2022-09-09T03:23:53;2.85;;;1.27;;
29370;SDS011;16357;52.188;7.838;2022-09-09T03:26:19;5.75;;;1.70;;
29370;SDS011;16357;52.188;7.838;2022-09-09T03:28:46;3.38;;;1.45;;
29370;SDS011;16357;52.188;7.838;2022-09-09T03:31:12;4.05;;;1.40;;
29370;SDS011;16357;52.188;7.838;2022-09-09T03:33:39;2.35;;;1.45;;
29370;SDS011;16357;52.188;7.838;2022-09-09T03:36:07;2.45;;;1.40;;
29370;SDS011;16357;52.188;7.838;2022-09-09T03:38:37;5.55;;;1.80;;
29370;SDS011;16357;52.188;7.838;2022-09-09T03:41:03;6.32;;;1.83;;
29370;SDS011;16357;52.188;7.838;2022-09-09T03:43:32;2.25;;;1.42;;
29370;SDS011;16357;52.188;7.838;2022-09-09T03:45:58;1.65;;;1.10;;
29370;SDS011;16357;52.188;7.838;2022-09-09T03:48:25;2.47;;;1.40;;
29370;SDS011;16357;52.188;7.838;2022-09-09T03:50:54;5.15;;;1.55;;
29370;SDS011;16357;52.188;7.838;2022-09-09T03:53:23;2.30;;;1.42;;
29370;SDS011;16357;52.188;7.838;2022-09-09T03:55:51;5.43;;;1.60;;
29370;SDS011;16357;52.188;7.838;2022-09-09T03:58:23;2.55;;;1.50;;
29370;SDS011;16357;52.188;7.838;2022-09-09T04:00:57;2.15;;;1.50;;
29370;SDS011;16357;52.188;7.838;2022-09-09T04:03:26;2.00;;;1.52;;
29370;SDS011;16357;52.188;7.838;2022-09-09T04:05:54;3.00;;;1.70;;
29370;SDS011;16357;52.188;7.838;2022-09-09T04:08:22;2.63;;;1.40;;
29370;SDS011;16357;52.188;7.838;2022-09-09T04:10:51;2.90;;;1.67;;
29370;SDS011;16357;52.188;7.838;2022-09-09T04:13:19;2.42;;;1.60;;
29370;SDS011;16357;52.188;7.838;2022-09-09T04:15:52;2.70;;;1.60;;
29370;SDS011;16357;52.188;7.838;2022-09-09T04:18:21;4.93;;;1.97;;
29370;SDS011;16357;52.188;7.838;2022-09-09T04:20:48;2.35;;;1.70;;
29370;SDS011;16357;52.188;7.838;2022-09-09T04:23:16;3.90;;;2.13;;
29370;SDS011;16357;52.188;7.838;2022-09-09T04:25:47;3.08;;;1.70;;
29370;SDS011;16357;52.188;7.838;2022-09-09T04:28:16;2.30;;;2.10;;
29370;SDS011;16357;52.188;7.838;2022-09-09T04:30:44;2.25;;;1.83;;
29370;SDS011;16357;52.188;7.838;2022-09-09T04:33:11;5.07;;;2.15;;
29370;SDS011;16357;52.188;7.838;2022-09-09T04:35:39;3.70;;;2.20;;
29370;SDS011;16357;52.188;7.838;2022-09-09T04:38:10;3.35;;;1.92;;
29370;SDS011;16357;52.188;7.838;2022-09-09T04:40:37;4.70;;;2.30;;
29370;SDS011;16357;52.188;7.838;2022-09-09T04:43:06;2.30;;;1.90;;
29370;SDS011;16357;52.188;7.838;2022-09-09T04:45:39;2.35;;;1.95;;
29370;SDS011;16357;52.188;7.838;2022-09-09T04:48:06;2.40;;;1.83;;
29370;SDS011;16357;52.188;7.838;2022-09-09T04:50:33;3.72;;;2.15;;
29370;SDS011;16357;52.188;7.838;2022-09-09T04:53:04;5.72;;;2.10;;
29370;SDS011;16357;52.188;7.838;2022-09-09T04:55:31;4.88;;;2.03;;
29370;SDS011;16357;52.188;7.838;2022-09-09T04:58:02;5.00;;;2.03;;
29370;SDS011;16357;52.188;7.838;2022-09-09T05:00:29;3.83;;;2.25;;
29370;SDS011;16357;52.188;7.838;2022-09-09T05:02:56;2.95;;;1.70;;
29370;SDS011;16357;52.188;7.838;2022-09-09T05:05:23;3.53;;;2.00;;
29370;SDS011;16357;52.188;7.838;2022-09-09T05:07:49;3.65;;;1.80;;
29370;SDS011;16357;52.188;7.838;2022-09-09T05:10:16;4.10;;;1.75;;
29370;SDS011;16357;52.188;7.838;2022-09-09T05:12:51;3.10;;;1.70;;
29370;SDS011;16357;52.188;7.838;2022-09-09T05:15:19;3.50;;;1.80;;
29370;SDS011;16357;52.188;7.838;2022-09-09T05:17:47;4.07;;;1.85;;
29370;SDS011;16357;52.188;7.838;2022-09-09T05:20:13;2.30;;;1.58;;
29370;SDS011;16357;52.188;7.838;2022-09-09T05:22:42;3.22;;;2.00;;
29370;SDS011;16357;52.188;7.838;2022-09-09T05:25:09;2.63;;;1.70;;
29370;SDS011;16357;52.188;7.838;2022-09-09T05:27:35;2.95;;;1.42;;
29370;SDS011;16357;52.188;7.838;2022-09-09T05:30:02;2.42;;;1.55;;
29370;SDS011;16357;52.188;7.838;2022-09-09T05:32:30;4.90;;;1.58;;
29370;SDS011;16357;52.188;7.838;2022-09-09T05:35:00;3.35;;;1.50;;
29370;SDS011;16357;52.188;7.838;2022-09-09T05:37:27;2.97;;;1.38;;
29370;SDS011;16357;52.188;7.838;2022-09-09T05:39:55;2.10;;;1.60;;
29370;SDS011;16357;52.188;7.838;2022-09-09T05:42:22;3.05;;;1.85;;
29370;SDS011;16357;52.188;7.838;2022-09-09T05:44:49;2.78;;;1.50;;
29370;SDS011;16357;52.188;7.838;2022-09-09T05:47:17;2.97;;;1.48;;
29370;SDS011;16357;52.188;7.838;2022-09-09T05:49:43;2.10;;;1.42;;
29370;SDS011;16357;52.188;7.838;2022-09-09T05:52:10;2.30;;;1.38;;
29370;SDS011;16357;52.188;7.838;2022-09-09T05:54:36;3.70;;;1.73;;
29370;SDS011;16357;52.188;7.838;2022-09-09T05:57:03;2.97;;;1.45;;
29370;SDS011;16357;52.188;7.838;2022-09-09T05:59:30;2.45;;;1.58;;
29370;SDS011;16357;52.188;7.838;2022-09-09T06:01:58;4.80;;;1.40;;
29370;SDS011;16357;52.188;7.838;2022-09-09T06:04:25;5.43;;;1.80;;
29370;SDS011;16357;52.188;7.838;2022-09-09T06:06:52;4.00;;;1.70;;
29370;SDS011;16357;52.188;7.838;2022-09-09T06:09:18;1.92;;;1.08;;
29370;SDS011;16357;52.188;7.838;2022-09-09T06:11:45;4.03;;;1.52;;
29370;SDS011;16357;52.188;7.838;2022-09-09T06:14:11;5.55;;;1.45;;
29370;SDS011;16357;52.188;7.838;2022-09-09T06:16:38;2.85;;;1.60;;
29370;SDS011;16357;52.188;7.838;2022-09-09T06:19:05;4.63;;;1.60;;
29370;SDS011;16357;52.188;7.838;2022-09-09T06:21:33;3.78;;;1.40;;
29370;SDS011;16357;52.188;7.838;2022-09-09T06:24:03;3.63;;;1.80;;
29370;SDS011;16357;52.188;7.838;2022-09-09T06:26:31;5.30;;;1.52;;
29370;SDS011;16357;52.188;7.838;2022-09-09T06:28:59;4.82;;;1.58;;
29370;SDS011;16357;52.188;7.838;2022-09-09T06:31:27;3.13;;;1.70;;
29370;SDS011;16357;52.188;7.838;2022-09-09T06:33:57;3.90;;;1.60;;
29370;SDS011;16357;52.188;7.838;2022-09-09T06:36:25;3.47;;;1.38;;
29370;SDS011;16357;52.188;7.838;2022-09-09T06:38:54;5.00;;;1.73;;
29370;SDS011;16357;52.188;7.838;2022-09-09T06:41:21;6.57;;;1.77;;
29370;SDS011;16357;52.188;7.838;2022-09-09T06:43:49;6.80;;;1.45;;
29370;SDS011;16357;52.188;7.838;2022-09-09T06:46:16;3.38;;;1.52;;
29370;SDS011;16357;52.188;7.838;2022-09-09T06:48:45;4.57;;;1.27;;
29370;SDS011;16357;52.188;7.838;2022-09-09T06:51:12;3.47;;;1.27;;
29370;SDS011;16357;52.188;7.838;2022-09-09T06:53:41;3.35;;;1.20;;
29370;SDS011;16357;52.188;7.838;2022-09-09T06:58:43;3.33;;;1.58;;
29370;SDS011;16357;52.188;7.838;2022-09-09T07:01:11;4.18;;;1.42;;
29370;SDS011;16357;52.188;7.838;2022-09-09T07:03:39;7.05;;;1.42;;
29370;SDS011;16357;52.188;7.838;2022-09-09T07:06:08;6.03;;;1.40;;
29370;SDS011;16357;52.188;7.838;2022-09-09T07:08:41;4.18;;;1.20;;
29370;SDS011;16357;52.188;7.838;2022-09-09T07:11:08;1.92;;;1.02;;
29370;SDS011;16357;52.188;7.838;2022-09-09T07:13:37;3.55;;;1.42;;
29370;SDS011;16357;52.188;7.838;2022-09-09T07:16:08;4.75;;;1.33;;
29370;SDS011;16357;52.188;7.838;2022-09-09T07:18:39;8.93;;;1.30;;
29370;SDS011;16357;52.188;7.838;2022-09-09T07:21:05;2.22;;;1.20;;
29370;SDS011;16357;52.188;7.838;2022-09-09T07:23:32;3.75;;;1.38;;
29370;SDS011;16357;52.188;7.838;2022-09-09T07:26:02;3.65;;;1.50;;
29370;SDS011;16357;52.188;7.838;2022-09-09T07:28:33;3.97;;;1.48;;
29370;SDS011;16357;52.188;7.838;2022-09-09T07:31:01;2.13;;;1.10;;
29370;SDS011;16357;52.188;7.838;2022-09-09T07:33:29;3.40;;;1.08;;
29370;SDS011;16357;52.188;7.838;2022-09-09T07:36:07;3.35;;;1.30;;
29370;SDS011;16357;52.188;7.838;2022-09-09T07:38:46;3.17;;;1.30;;
29370;SDS011;16357;52.188;7.838;2022-09-09T07:41:18;6.45;;;1.73;;
29370;SDS011;16357;52.188;7.838;2022-09-09T07:43:49;5.80;;;1.30;;
29370;SDS011;16357;52.188;7.838;2022-09-09T07:46:17;5.20;;;1.50;;
29370;SDS011;16357;52.188;7.838;2022-09-09T07:48:49;4.75;;;1.55;;
29370;SDS011;16357;52.188;7.838;2022-09-09T07:51:19;4.45;;;1.50;;
29370;SDS011;16357;52.188;7.838;2022-09-09T07:53:50;3.67;;;1.15;;
29370;SDS011;16357;52.188;7.838;2022-09-09T07:56:19;2.72;;;1.25;;
29370;SDS011;16357;52.188;7.838;2022-09-09T07:58:48;4.03;;;1.10;;
29370;SDS011;16357;52.188;7.838;2022-09-09T08:01:17;4.32;;;1.23;;
29370;SDS011;16357;52.188;7.838;2022-09-09T08:03:53;3.42;;;1.13;;
29370;SDS011;16357;52.188;7.838;2022-09-09T08:06:25;4.97;;;1.38;;
29370;SDS011;16357;52.188;7.838;2022-09-09T08:08:53;9.50;;;1.90;;
29370;SDS011;16357;52.188;7.838;2022-09-09T08:11:22;6.35;;;1.80;;
29370;SDS011;16357;52.188;7.838;2022-09-09T08:13:50;5.30;;;1.73;;
29370;SDS011;16357;52.188;7.838;2022-09-09T08:16:22;9.23;;;1.48;;
29370;SDS011;16357;52.188;7.838;2022-09-09T08:18:51;5.18;;;1.67;;
29370;SDS011;16357;52.188;7.838;2022-09-09T08:21:23;4.15;;;1.35;;
29370;SDS011;16357;52.188;7.838;2022-09-09T08:23:53;4.03;;;1.35;;
29370;SDS011;16357;52.188;7.838;2022-09-09T08:26:33;4.40;;;1.63;;
29370;SDS011;16357;52.188;7.838;2022-09-09T08:29:02;4.60;;;1.55;;
29370;SDS011;16357;52.188;7.838;2022-09-09T08:31:30;3.60;;;1.20;;
29370;SDS011;16357;52.188;7.838;2022-09-09T08:34:00;4.78;;;1.70;;
29370;SDS011;16357;52.188;7.838;2022-09-09T08:36:30;3.20;;;1.25;;
29370;SDS011;16357;52.188;7.838;2022-09-09T08:38:59;3.50;;;1.30;;
29370;SDS011;16357;52.188;7.838;2022-09-09T08:44:14;7.20;;;1.27;;
29370;SDS011;16357;52.188;7.838;2022-09-09T08:52:51;2.40;;;0.98;;
29370;SDS011;16357;52.188;7.838;2022-09-09T08:55:25;3.72;;;1.08;;
29370;SDS011;16357;52.188;7.838;2022-09-09T09:05:59;5.05;;;1.60;;
29370;SDS011;16357;52.188;7.838;2022-09-09T09:08:39;3.28;;;0.98;;
29370;SDS011;16357;52.188;7.838;2022-09-09T09:11:14;4.70;;;1.42;;
29370;SDS011;16357;52.188;7.838;2022-09-09T09:13:54;3.35;;;1.20;;
29370;SDS011;16357;52.188;7.838;2022-09-09T09:19:25;5.00;;;1.13;;
29370;SDS011;16357;52.188;7.838;2022-09-09T09:22:01;3.55;;;1.35;;
29370;SDS011;16357;52.188;7.838;2022-09-09T09:24:49;3.90;;;1.48;;
29370;SDS011;16357;52.188;7.838;2022-09-09T09:27:36;4.45;;;1.40;;
29370;SDS011;16357;52.188;7.838;2022-09-09T09:30:14;3.78;;;1.17;;
29370;SDS011;16357;52.188;7.838;2022-09-09T09:32:59;15.48;;;1.98;;
29370;SDS011;16357;52.188;7.838;2022-09-09T09:35:32;4.35;;;1.60;;
29370;SDS011;16357;52.188;7.838;2022-09-09T09:38:12;4.43;;;1.77;;
29370;SDS011;16357;52.188;7.838;2022-09-09T09:41:03;3.45;;;1.65;;
29370;SDS011;16357;52.188;7.838;2022-09-09T09:43:33;6.85;;;2.03;;
29370;SDS011;16357;52.188;7.838;2022-09-09T09:46:05;3.55;;;1.58;;
29370;SDS011;16357;52.188;7.838;2022-09-09T09:48:45;4.07;;;1.70;;
29370;SDS011;16357;52.188;7.838;2022-09-09T09:51:23;3.15;;;1.27;;
29370;SDS011;16357;52.188;7.838;2022-09-09T09:53:51;4.97;;;1.73;;
29370;SDS011;16357;52.188;7.838;2022-09-09T09:56:26;3.40;;;1.50;;
29370;SDS011;16357;52.188;7.838;2022-09-09T09:58:58;5.20;;;1.80;;
29370;SDS011;16357;52.188;7.838;2022-09-09T10:01:26;5.45;;;1.88;;
29370;SDS011;16357;52.188;7.838;2022-09-09T10:03:59;5.30;;;1.58;;
29370;SDS011;16357;52.188;7.838;2022-09-09T10:06:29;5.70;;;1.50;;
29370;SDS011;16357;52.188;7.838;2022-09-09T10:09:03;4.03;;;1.73;;
29370;SDS011;16357;52.188;7.838;2022-09-09T10:17:18;3.78;;;1.13;;
29370;SDS011;16357;52.188;7.838;2022-09-09T10:20:00;2.42;;;1.20;;
29370;SDS011;16357;52.188;7.838;2022-09-09T10:22:36;4.82;;;1.58;;
29370;SDS011;16357;52.188;7.838;2022-09-09T10:25:13;3.90;;;1.33;;
29370;SDS011;16357;52.188;7.838;2022-09-09T10:28:21;7.53;;;2.50;;
29370;SDS011;16357;52.188;7.838;2022-09-09T10:31:04;6.53;;;1.80;;
29370;SDS011;16357;52.188;7.838;2022-09-09T10:36:33;5.55;;;1.30;;
29370;SDS011;16357;52.188;7.838;2022-09-09T10:39:18;6.78;;;1.80;;
29370;SDS011;16357;52.188;7.838;2022-09-09T10:44:42;9.70;;;1.70;;
29370;SDS011;16357;52.188;7.838;2022-09-09T10:56:16;8.05;;;1.80;;
29370;SDS011;16357;52.188;7.838;2022-09-09T10:58:52;4.55;;;1.27;;
29370;SDS011;16357;52.188;7.838;2022-09-09T11:01:26;4.88;;;1.17;;
29370;SDS011;16357;52.188;7.838;2022-09-09T11:04:04;3.92;;;1.20;;
29370;SDS011;16357;52.188;7.838;2022-09-09T11:06:41;5.05;;;1.50;;
29370;SDS011;16357;52.188;7.838;2022-09-09T11:09:13;4.85;;;1.50;;
29370;SDS011;16357;52.188;7.838;2022-09-09T11:14:22;4.53;;;1.20;;
29370;SDS011;16357;52.188;7.838;2022-09-09T11:17:10;5.43;;;1.33;;
29370;SDS011;16357;52.188;7.838;2022-09-09T11:19:43;4.20;;;1.20;;
29370;SDS011;16357;52.188;7.838;2022-09-09T11:25:04;3.38;;;1.05;;
29370;SDS011;16357;52.188;7.838;2022-09-09T11:39:35;3.53;;;1.00;;
29370;SDS011;16357;52.188;7.838;2022-09-09T11:44:39;11.93;;;1.65;;
29370;SDS011;16357;52.188;7.838;2022-09-09T11:47:19;2.67;;;0.80;;
29370;SDS011;16357;52.188;7.838;2022-09-09T11:49:50;1.90;;;0.70;;
29370;SDS011;16357;52.188;7.838;2022-09-09T11:52:24;1.23;;;0.70;;
29370;SDS011;16357;52.188;7.838;2022-09-09T11:55:35;3.25;;;1.30;;
29370;SDS011;16357;52.188;7.838;2022-09-09T11:58:03;4.25;;;1.05;;
29370;SDS011;16357;52.188;7.838;2022-09-09T12:03:08;3.03;;;0.85;;
29370;SDS011;16357;52.188;7.838;2022-09-09T12:09:18;1.83;;;0.90;;
29370;SDS011;16357;52.188;7.838;2022-09-09T12:11:51;3.80;;;1.08;;
29370;SDS011;16357;52.188;7.838;2022-09-09T12:14:22;1.95;;;1.00;;
29370;SDS011;16357;52.188;7.838;2022-09-09T12:17:36;2.03;;;0.93;;
29370;SDS011;16357;52.188;7.838;2022-09-09T12:27:51;2.17;;;1.30;;
29370;SDS011;16357;52.188;7.838;2022-09-09T12:30:29;3.58;;;1.23;;
29370;SDS011;16357;52.188;7.838;2022-09-09T12:33:02;4.90;;;1.48;;
29370;SDS011;16357;52.188;7.838;2022-09-09T12:35:34;4.38;;;1.52;;
29370;SDS011;16357;52.188;7.838;2022-09-09T12:38:04;4.60;;;1.63;;
29370;SDS011;16357;52.188;7.838;2022-09-09T12:40:37;4.88;;;1.40;;
29370;SDS011;16357;52.188;7.838;2022-09-09T12:43:18;5.32;;;1.50;;
29370;SDS011;16357;52.188;7.838;2022-09-09T12:45:48;5.00;;;1.85;;
29370;SDS011;16357;52.188;7.838;2022-09-09T12:48:17;3.75;;;1.42;;
29370;SDS011;16357;52.188;7.838;2022-09-09T12:50:47;3.10;;;1.60;;
29370;SDS011;16357;52.188;7.838;2022-09-09T12:53:24;4.10;;;1.48;;
29370;SDS011;16357;52.188;7.838;2022-09-09T12:55:56;3.20;;;1.40;;
29370;SDS011;16357;52.188;7.838;2022-09-09T12:58:24;4.75;;;1.45;;
29370;SDS011;16357;52.188;7.838;2022-09-09T13:00:55;3.90;;;1.45;;
29370;SDS011;16357;52.188;7.838;2022-09-09T13:03:26;4.53;;;1.55;;
29370;SDS011;16357;52.188;7.838;2022-09-09T13:05:53;3.80;;;1.45;;
29370;SDS011;16357;52.188;7.838;2022-09-09T13:08:26;3.58;;;1.33;;
29370;SDS011;16357;52.188;7.838;2022-09-09T13:10:57;4.63;;;1.10;;
29370;SDS011;16357;52.188;7.838;2022-09-09T13:13:35;4.05;;;1.15;;
29370;SDS011;16357;52.188;7.838;2022-09-09T13:16:04;1.17;;;0.70;;
29370;SDS011;16357;52.188;7.838;2022-09-09T13:18:35;2.90;;;1.10;;
29370;SDS011;16357;52.188;7.838;2022-09-09T13:21:04;3.92;;;1.15;;
29370;SDS011;16357;52.188;7.838;2022-09-09T13:23:31;3.38;;;1.10;;
29370;SDS011;16357;52.188;7.838;2022-09-09T13:26:02;1.48;;;0.70;;
29370;SDS011;16357;52.188;7.838;2022-09-09T13:28:34;2.80;;;1.00;;
29370;SDS011;16357;52.188;7.838;2022-09-09T13:31:05;1.92;;;0.90;;
29370;SDS011;16357;52.188;7.838;2022-09-09T13:33:45;4.30;;;1.00;;
29370;SDS011;16357;52.188;7.838;2022-09-09T13:36:11;3.08;;;0.93;;
29370;SDS011;16357;52.188;7.838;2022-09-09T13:38:53;2.80;;;0.82;;
29370;SDS011;16357;52.188;7.838;2022-09-09T13:41:22;2.15;;;0.82;;
29370;SDS011;16357;52.188;7.838;2022-09-09T13:43:50;1.50;;;0.82;;
29370;SDS011;16357;52.188;7.838;2022-09-09T13:46:24;4.32;;;1.10;;
29370;SDS011;16357;52.188;7.838;2022-09-09T13:48:57;2.72;;;0.80;;
29370;SDS011;16357;52.188;7.838;2022-09-09T13:51:34;2.95;;;1.00;;
29370;SDS011;16357;52.188;7.838;2022-09-09T13:54:05;3.72;;;1.00;;
29370;SDS011;16357;52.188;7.838;2022-09-09T13:56:33;2.72;;;0.93;;
29370;SDS011;16357;52.188;7.838;2022-09-09T13:59:01;2.47;;;0.90;;
29370;SDS011;16357;52.188;7.838;2022-09-09T14:01:29;2.33;;;1.15;;
29370;SDS011;16357;52.188;7.838;2022-09-09T14:03:56;2.42;;;0.80;;
29370;SDS011;16357;52.188;7.838;2022-09-09T14:06:23;2.75;;;0.85;;
29370;SDS011;16357;52.188;7.838;2022-09-09T14:08:50;8.38;;;0.90;;
29370;SDS011;16357;52.188;7.838;2022-09-09T14:11:17;3.85;;;1.02;;
29370;SDS011;16357;52.188;7.838;2022-09-09T14:13:44;2.05;;;0.90;;
29370;SDS011;16357;52.188;7.838;2022-09-09T14:16:11;1.75;;;0.90;;
29370;SDS011;16357;52.188;7.838;2022-09-09T14:18:37;1.27;;;0.80;;
29370;SDS011;16357;52.188;7.838;2022-09-09T14:21:05;1.17;;;0.60;;
29370;SDS011;16357;52.188;7.838;2022-09-09T14:23:31;1.52;;;0.70;;
29370;SDS011;16357;52.188;7.838;2022-09-09T14:25:58;1.50;;;0.70;;
29370;SDS011;16357;52.188;7.838;2022-09-09T14:28:24;1.95;;;0.85;;
29370;SDS011;16357;52.188;7.838;2022-09-09T14:31:11;1.42;;;0.82;;
29370;SDS011;16357;52.188;7.838;2022-09-09T14:33:39;0.63;;;0.63;;
29370;SDS011;16357;52.188;7.838;2022-09-09T14:36:06;1.10;;;0.82;;
29370;SDS011;16357;52.188;7.838;2022-09-09T14:38:34;2.60;;;0.80;;
29370;SDS011;16357;52.188;7.838;2022-09-09T14:41:06;0.93;;;0.57;;
29370;SDS011;16357;52.188;7.838;2022-09-09T14:43:33;1.33;;;0.80;;
29370;SDS011;16357;52.188;7.838;2022-09-09T14:46:09;1.02;;;0.65;;
29370;SDS011;16357;52.188;7.838;2022-09-09T14:48:38;2.45;;;0.80;;
29370;SDS011;16357;52.188;7.838;2022-09-09T14:51:12;1.33;;;0.80;;
29370;SDS011;16357;52.188;7.838;2022-09-09T14:53:41;2.08;;;0.77;;
29370;SDS011;16357;52.188;7.838;2022-09-09T14:56:09;3.20;;;1.05;;
29370;SDS011;16357;52.188;7.838;2022-09-09T14:58:40;2.45;;;0.80;;
29370;SDS011;16357;52.188;7.838;2022-09-09T15:01:08;1.40;;;0.93;;
29370;SDS011;16357;52.188;7.838;2022-09-09T15:03:40;2.92;;;1.00;;
29370;SDS011;16357;52.188;7.838;2022-09-09T15:06:08;2.85;;;1.15;;
29370;SDS011;16357;52.188;7.838;2022-09-09T15:08:40;2.17;;;0.90;;
29370;SDS011;16357;52.188;7.838;2022-09-09T15:11:08;2.05;;;0.90;;
29370;SDS011;16357;52.188;7.838;2022-09-09T15:13:36;1.88;;;0.70;;
29370;SDS011;16357;52.188;7.838;2022-09-09T15:16:07;2.42;;;0.88;;
29370;SDS011;16357;52.188;7.838;2022-09-09T15:18:39;1.50;;;0.80;;
29370;SDS011;16357;52.188;7.838;2022-09-09T15:21:13;1.38;;;0.73;;
29370;SDS011;16357;52.188;7.838;2022-09-09T15:23:48;3.30;;;1.05;;
29370;SDS011;16357;52.188;7.838;2022-09-09T15:26:15;1.45;;;0.75;;
29370;SDS011;16357;52.188;7.838;2022-09-09T15:28:43;2.67;;;0.90;;
29370;SDS011;16357;52.188;7.838;2022-09-09T15:31:11;1.92;;;0.82;;
29370;SDS011;16357;52.188;7.838;2022-09-09T15:33:40;1.65;;;0.88;;
29370;SDS011;16357;52.188;7.838;2022-09-09T15:38:41;2.13;;;0.70;;
29370;SDS011;16357;52.188;7.838;2022-09-09T15:41:07;1.27;;;0.77;;
29370;SDS011;16357;52.188;7.838;2022-09-09T15:43:34;1.95;;;0.80;;
29370;SDS011;16357;52.188;7.838;2022-09-09T15:46:02;3.55;;;0.70;;
29370;SDS011;16357;52.188;7.838;2022-09-09T15:48:54;1.38;;;0.75;;
29370;SDS011;16357;52.188;7.838;2022-09-09T15:51:23;2.45;;;0.80;;
29370;SDS011;16357;52.188;7.838;2022-09-09T15:54:10;1.00;;;0.60;;
29370;SDS011;16357;52.188;7.838;2022-09-09T15:56:38;1.70;;;0.60;;
29370;SDS011;16357;52.188;7.838;2022-09-09T15:59:05;1.63;;;0.60;;
29370;SDS011;16357;52.188;7.838;2022-09-09T16:01:31;1.35;;;0.70;;
29370;SDS011;16357;52.188;7.838;2022-09-09T16:03:58;1.52;;;0.50;;
29370;SDS011;16357;52.188;7.838;2022-09-09T16:06:26;1.00;;;0.63;;
29370;SDS011;16357;52.188;7.838;2022-09-09T16:08:55;2.03;;;0.80;;
29370;SDS011;16357;52.188;7.838;2022-09-09T16:11:24;1.77;;;0.60;;
29370;SDS011;16357;52.188;7.838;2022-09-09T16:13:53;2.50;;;0.88;;
29370;SDS011;16357;52.188;7.838;2022-09-09T16:16:22;1.70;;;0.70;;
29370;SDS011;16357;52.188;7.838;2022-09-09T16:18:51;2.25;;;0.60;;
29370;SDS011;16357;52.188;7.838;2022-09-09T16:21:24;0.93;;;0.60;;
29370;SDS011;16357;52.188;7.838;2022-09-09T16:23:58;2.88;;;0.90;;
29370;SDS011;16357;52.188;7.838;2022-09-09T16:26:26;2.05;;;0.65;;
29370;SDS011;16357;52.188;7.838;2022-09-09T16:28:53;1.17;;;0.50;;
29370;SDS011;16357;52.188;7.838;2022-09-09T16:31:25;2.38;;;0.65;;
29370;SDS011;16357;52.188;7.838;2022-09-09T16:33:53;1.88;;;1.00;;
29370;SDS011;16357;52.188;7.838;2022-09-09T16:36:24;2.10;;;0.63;;
29370;SDS011;16357;52.188;7.838;2022-09-09T16:38:55;2.40;;;0.90;;
29370;SDS011;16357;52.188;7.838;2022-09-09T16:41:24;2.70;;;0.80;;
29370;SDS011;16357;52.188;7.838;2022-09-09T16:43:57;2.38;;;0.70;;
29370;SDS011;16357;52.188;7.838;2022-09-09T16:46:31;0.98;;;0.70;;
29370;SDS011;16357;52.188;7.838;2022-09-09T16:49:01;2.72;;;0.95;;
29370;SDS011;16357;52.188;7.838;2022-09-09T16:51:34;1.05;;;0.80;;
29370;SDS011;16357;52.188;7.838;2022-09-09T16:54:05;1.20;;;0.70;;
29370;SDS011;16357;52.188;7.838;2022-09-09T16:56:35;1.25;;;0.70;;
29370;SDS011;16357;52.188;7.838;2022-09-09T16:59:07;1.60;;;0.88;;
29370;SDS011;16357;52.188;7.838;2022-09-09T17:01:38;2.13;;;0.85;;
29370;SDS011;16357;52.188;7.838;2022-09-09T17:04:11;1.27;;;0.70;;
29370;SDS011;16357;52.188;7.838;2022-09-09T17:06:41;2.35;;;0.98;;
29370;SDS011;16357;52.188;7.838;2022-09-09T17:09:09;2.45;;;0.70;;
29370;SDS011;16357;52.188;7.838;2022-09-09T17:11:37;2.00;;;0.80;;
29370;SDS011;16357;52.188;7.838;2022-09-09T17:14:05;1.15;;;0.73;;
29370;SDS011;16357;52.188;7.838;2022-09-09T17:16:35;0.95;;;0.68;;
29370;SDS011;16357;52.188;7.838;2022-09-09T17:19:02;3.35;;;0.88;;